Time;durP1;ratioP1;P1;durP2;ratioP2;P2;SDS_P1;SDS_P2;PMS_P1;PMS_P2;Temp;Humidity;BMP_temperature;BMP_pressure;BME280_temperature;BME280_humidity;BME280_pressure;Samples;Min_cycle;Max_cycle;Signal;HPM_P1;HPM_P2
2022/06/20 00:00:23;;;;;;;7.63;3.25;;;;;;;16.30;64.59;98941.25;4930218;29;20036;-78
2022/06/20 00:02:53;;;;;;;10.82;6.38;;;;;;;16.24;64.51;98954.66;4926721;29;20070;-81
2022/06/20 00:05:27;;;;;;;9.57;6.00;;;;;;;16.09;64.83;98925.56;4925329;29;20050;-80
2022/06/20 00:07:54;;;;;;;9.63;4.53;;;;;;;16.21;64.77;98955.66;4931483;29;20055;-77
2022/06/20 00:10:22;;;;;;;9.35;3.42;;;;;;;16.16;65.18;98956.75;4934193;29;20843;-80
2022/06/20 00:12:49;;;;;;;3.42;2.97;;;;;;;16.10;65.03;98940.41;4931423;29;20048;-80
2022/06/20 00:15:31;;;;;;;8.88;3.30;;;;;;;16.03;65.19;98938.97;4931804;29;20044;-80
2022/06/20 00:17:59;;;;;;;4.60;2.60;;;;;;;15.81;65.54;98918.03;4930566;29;20047;-79
2022/06/20 00:20:25;;;;;;;4.97;2.90;;;;;;;15.84;65.61;98931.03;4929439;29;20043;-80
2022/06/20 00:22:53;;;;;;;5.88;3.67;;;;;;;15.84;66.00;98948.56;4926013;29;20048;-80
2022/06/20 00:25:19;;;;;;;5.00;3.42;;;;;;;15.74;66.14;98954.19;4915893;29;20129;-79
2022/06/20 00:27:46;;;;;;;5.97;2.97;;;;;;;15.39;66.16;98927.72;4914053;29;20059;-78
2022/06/20 00:30:16;;;;;;;3.75;3.13;;;;;;;15.17;66.88;98931.25;4911737;29;20095;-80
2022/06/20 00:32:42;;;;;;;9.13;3.70;;;;;;;14.97;67.57;98920.75;4906264;29;20554;-79
2022/06/20 00:35:09;;;;;;;5.70;3.08;;;;;;;14.92;68.05;98918.28;4924232;29;20056;-82
2022/06/20 00:37:35;;;;;;;3.00;2.70;;;;;;;14.90;68.35;98909.66;4913901;29;20043;-78
2022/06/20 00:40:04;;;;;;;5.50;3.40;;;;;;;15.00;68.78;98931.94;4925979;29;20090;-80
2022/06/20 00:42:30;;;;;;;6.18;3.03;;;;;;;14.92;68.95;98920.91;4927754;29;20059;-79
2022/06/20 00:45:16;;;;;;;4.00;2.85;;;;;;;14.90;68.99;98915.75;4927862;29;20045;-82
2022/06/20 00:48:09;;;;;;;5.55;2.88;;;;;;;14.89;69.50;98926.31;4929642;29;20111;-82
2022/06/20 00:50:59;;;;;;;5.72;3.00;;;;;;;14.80;69.63;98901.31;4929355;29;20086;-80
2022/06/20 00:53:50;;;;;;;4.47;3.13;;;;;;;14.67;69.70;98876.53;4927763;29;20582;-81
2022/06/20 00:56:53;;;;;;;4.90;3.08;;;;;;;14.84;70.12;98884.56;4931887;29;20514;-81
2022/06/20 00:59:42;;;;;;;7.13;2.75;;;;;;;14.70;70.09;98865.97;4932247;29;20525;-80
2022/06/20 01:02:34;;;;;;;4.25;2.45;;;;;;;14.73;70.05;98886.78;4931443;29;20111;-79
2022/06/20 01:05:24;;;;;;;4.18;2.85;;;;;;;14.93;70.34;98933.09;4926534;29;20050;-78
2022/06/20 01:08:17;;;;;;;4.38;2.78;;;;;;;14.93;70.47;98938.34;4929980;29;20458;-77
2022/06/20 01:11:07;;;;;;;3.42;2.88;;;;;;;14.96;70.50;98943.44;4928056;29;20078;-79
2022/06/20 01:13:51;;;;;;;4.68;2.88;;;;;;;14.96;70.76;98934.75;4926161;29;20090;-79
2022/06/20 01:16:37;;;;;;;4.60;3.42;;;;;;;15.07;70.87;98943.00;4926858;29;20130;-79
2022/06/20 01:19:37;;;;;;;4.50;2.83;;;;;;;15.01;70.75;98923.16;4932194;29;20686;-78
2022/06/20 01:22:55;;;;;;;4.60;2.88;;;;;;;15.04;70.53;98933.53;4929378;29;20135;-80
2022/06/20 01:25:57;;;;;;;5.35;3.40;;;;;;;14.98;71.08;98918.06;4926573;29;20071;-79
2022/06/20 01:28:45;;;;;;;3.97;3.20;;;;;;;15.08;71.03;98930.78;4922791;29;20090;-78
2022/06/20 01:31:34;;;;;;;4.38;3.17;;;;;;;15.12;70.81;98929.72;4926728;29;20051;-81
2022/06/20 01:34:20;;;;;;;3.10;2.45;;;;;;;15.14;71.43;98923.53;4917378;29;20063;-80
2022/06/20 01:37:29;;;;;;;5.60;2.80;;;;;;;15.18;71.29;98929.47;4925537;29;20554;-80
2022/06/20 01:40:15;;;;;;;4.13;2.80;;;;;;;15.27;71.22;98942.19;4926946;29;20059;-81
2022/06/20 01:43:00;;;;;;;3.15;2.80;;;;;;;15.24;71.21;98938.84;4926981;29;20066;-79
2022/06/20 01:45:59;;;;;;;6.40;3.25;;;;;;;15.30;71.29;98949.94;4921812;29;20059;-79
2022/06/20 01:48:51;;;;;;;4.47;2.60;;;;;;;15.23;71.35;98921.44;4926916;29;20054;-78
2022/06/20 01:51:46;;;;;;;4.30;2.90;;;;;;;15.38;71.41;98933.03;4931793;29;20143;-80
2022/06/20 01:54:34;;;;;;;6.97;2.80;;;;;;;15.35;71.16;98910.41;4907974;29;20518;-79
2022/06/20 01:57:21;;;;;;;3.42;2.58;;;;;;;15.41;71.21;98909.31;4924441;29;20062;-77
2022/06/20 02:00:18;;;;;;;3.20;2.63;;;;;;;15.44;70.97;98903.94;4923579;29;20493;-77
2022/06/20 02:03:10;;;;;;;3.28;2.85;;;;;;;15.44;70.65;98911.78;4926945;29;20075;-78
2022/06/20 02:05:56;;;;;;;5.95;2.83;;;;;;;15.39;70.97;98892.78;4911840;29;20063;-79
2022/06/20 02:08:43;;;;;;;6.22;3.08;;;;;;;15.49;71.01;98896.72;4928279;29;20186;-80
2022/06/20 02:11:34;;;;;;;5.53;2.83;;;;;;;15.37;70.95;98895.47;4925472;29;20123;-81
2022/06/20 02:14:35;;;;;;;3.50;2.70;;;;;;;15.53;70.83;98914.03;4925227;29;20062;-80
2022/06/20 02:17:26;;;;;;;4.85;2.58;;;;;;;15.45;70.74;98901.22;4924541;29;20074;-79
2022/06/20 02:20:17;;;;;;;3.13;2.70;;;;;;;15.46;70.64;98915.19;4931348;29;20107;-80
2022/06/20 02:23:02;;;;;;;3.63;2.67;;;;;;;15.45;70.76;98927.44;4929055;29;20115;-78
2022/06/20 02:25:49;;;;;;;3.80;2.45;;;;;;;15.40;70.81;98924.19;4922782;29;20411;-80
2022/06/20 02:28:46;;;;;;;5.15;3.03;;;;;;;15.46;70.67;98939.63;4926373;29;20051;-79
2022/06/20 02:31:30;;;;;;;4.72;2.70;;;;;;;15.46;70.48;98947.50;4929434;29;20523;-79
2022/06/20 02:34:15;;;;;;;4.60;2.70;;;;;;;15.49;70.53;98962.25;4927911;29;20045;-77
2022/06/20 02:37:09;;;;;;;5.90;2.97;;;;;;;15.44;70.44;98944.13;4928425;29;20135;-78
2022/06/20 02:39:58;;;;;;;4.80;3.00;;;;;;;15.47;70.46;98943.97;4941461;29;20110;-77
2022/06/20 02:42:56;;;;;;;7.22;3.00;;;;;;;15.40;70.65;98913.72;4927161;29;20106;-79
2022/06/20 02:45:41;;;;;;;7.53;2.95;;;;;;;15.46;70.70;98928.31;4922945;29;21137;-82
2022/06/20 02:48:30;;;;;;;5.45;3.13;;;;;;;15.43;70.70;98912.72;4927390;29;20574;-78
2022/06/20 02:51:20;;;;;;;6.20;3.30;;;;;;;15.42;70.87;98887.41;4939822;29;20098;-80
2022/06/20 02:54:09;;;;;;;4.57;3.40;;;;;;;15.46;70.94;98891.63;4929644;29;20047;-78
2022/06/20 02:57:03;;;;;;;5.50;2.95;;;;;;;15.35;71.16;98882.44;4927919;29;20067;-77
2022/06/20 02:59:53;;;;;;;7.75;2.95;;;;;;;15.17;71.01;98876.22;4930517;29;20565;-79
2022/06/20 03:02:39;;;;;;;4.30;3.00;;;;;;;15.19;70.92;98871.78;4928177;29;20130;-77
2022/06/20 03:05:25;;;;;;;6.10;3.10;;;;;;;15.09;70.75;98861.75;4925287;29;20051;-77
2022/06/20 03:08:14;;;;;;;3.15;2.42;;;;;;;15.16;71.38;98903.34;4926881;29;20078;-78
2022/06/20 03:11:04;;;;;;;5.05;2.88;;;;;;;15.21;71.05;98887.41;4936167;29;20042;-79
2022/06/20 03:13:49;;;;;;;3.67;3.08;;;;;;;15.27;71.09;98873.19;4928117;29;20091;-79
2022/06/20 03:16:34;;;;;;;5.85;2.88;;;;;;;15.35;71.15;98863.25;4929078;29;20047;-82
2022/06/20 03:19:25;;;;;;;4.10;2.67;;;;;;;15.47;71.11;98867.94;4927060;29;20476;-81
2022/06/20 03:22:14;;;;;;;5.80;2.92;;;;;;;15.70;70.89;98887.03;4929043;29;20103;-81
2022/06/20 03:24:59;;;;;;;4.10;3.00;;;;;;;15.88;70.88;98895.91;4916602;29;20067;-80
2022/06/20 03:27:44;;;;;;;4.18;2.67;;;;;;;15.88;70.55;98861.81;4923761;29;20720;-77
2022/06/20 03:30:34;;;;;;;3.83;2.50;;;;;;;16.10;70.47;98873.94;4931101;29;20055;-78
2022/06/20 03:33:21;;;;;;;4.72;2.72;;;;;;;16.11;69.82;98878.25;4929382;29;20071;-78
2022/06/20 03:36:21;;;;;;;8.40;3.13;;;;;;;16.10;69.88;98889.69;4926016;29;20081;-81
2022/06/20 03:39:07;;;;;;;4.93;3.05;;;;;;;15.98;69.86;98843.03;4928568;29;20094;-80
2022/06/20 03:41:51;;;;;;;5.15;2.88;;;;;;;16.07;69.53;98868.81;4926921;29;20063;-80
2022/06/20 03:44:41;;;;;;;6.28;2.80;;;;;;;15.92;69.29;98863.38;4929109;29;20054;-79
2022/06/20 03:47:40;;;;;;;5.88;3.15;;;;;;;15.99;69.22;98889.34;4930090;29;20111;-80
2022/06/20 03:50:30;;;;;;;3.92;2.80;;;;;;;15.93;69.24;98893.94;4928209;29;20059;-79
2022/06/20 03:53:28;;;;;;;4.35;2.47;;;;;;;15.89;69.21;98905.47;4926854;29;20474;-77
2022/06/20 03:56:20;;;;;;;6.13;2.63;;;;;;;15.83;69.15;98903.09;4929992;29;20058;-80
2022/06/20 03:59:16;;;;;;;4.43;2.58;;;;;;;15.86;69.19;98905.59;4926302;29;20507;-80
2022/06/20 04:02:09;;;;;;;5.03;2.70;;;;;;;15.92;69.39;98897.47;4923925;29;20111;-78
2022/06/20 04:05:22;;;;;;;4.72;2.70;;;;;;;15.96;69.21;98912.16;4938531;29;20107;-82
2022/06/20 04:08:14;;;;;;;4.75;2.67;;;;;;;15.88;68.91;98882.78;4928415;29;20051;-78
2022/06/20 04:11:03;;;;;;;4.50;2.55;;;;;;;15.91;69.02;98903.63;4926825;29;20050;-79
2022/06/20 04:13:56;;;;;;;5.82;2.60;;;;;;;15.71;68.88;98870.41;4927858;29;20054;-80
2022/06/20 04:16:52;;;;;;;4.90;2.60;;;;;;;15.60;69.18;98846.44;4927400;29;20074;-81
2022/06/20 04:19:39;;;;;;;5.25;2.50;;;;;;;15.90;69.27;98873.06;4930382;29;20059;-82
2022/06/20 04:22:32;;;;;;;4.95;2.90;;;;;;;15.93;69.19;98861.59;4926698;29;20063;-80
2022/06/20 04:25:30;;;;;;;4.45;2.25;;;;;;;16.08;69.23;98881.03;4916697;29;20045;-79
2022/06/20 04:28:34;;;;;;;4.35;2.78;;;;;;;16.19;68.78;98889.25;4918199;29;20058;-77
2022/06/20 04:31:40;;;;;;;5.93;2.72;;;;;;;16.45;68.63;98908.16;4923693;29;20055;-80
2022/06/20 04:35:03;;;;;;;4.38;3.03;;;;;;;16.61;68.64;98896.94;4928234;29;20183;-80
2022/06/20 04:37:53;;;;;;;5.03;3.00;;;;;;;16.89;67.92;98887.69;4928790;29;20500;-81
2022/06/20 04:40:45;;;;;;;4.72;2.53;;;;;;;17.09;68.15;98861.34;4927847;29;20118;-81
2022/06/20 04:44:01;;;;;;;5.30;2.70;;;;;;;17.31;67.19;98871.59;4926816;29;20058;-80
2022/06/20 04:47:00;;;;;;;5.18;2.58;;;;;;;17.47;66.76;98891.81;4927754;29;20086;-82
2022/06/20 04:49:44;;;;;;;5.32;2.80;;;;;;;17.66;66.58;98904.00;4927301;29;20058;-81
2022/06/20 04:52:31;;;;;;;5.28;2.97;;;;;;;17.72;65.74;98885.28;4924964;29;20131;-83
2022/06/20 04:55:19;;;;;;;7.35;2.58;;;;;;;17.94;65.52;98905.19;4925242;29;20487;-82
2022/06/20 04:58:08;;;;;;;4.20;2.67;;;;;;;17.98;65.09;98902.34;4927503;29;20055;-80
2022/06/20 05:00:53;;;;;;;4.43;2.78;;;;;;;17.92;64.38;98876.34;4926357;29;20058;-82
2022/06/20 05:03:45;;;;;;;4.47;2.50;;;;;;;18.13;64.59;98865.59;4924599;29;20080;-79
2022/06/20 05:06:32;;;;;;;34.40;23.70;;;;;;;18.57;64.48;98849.09;4927474;29;20107;-81
2022/06/20 05:09:43;;;;;;;24.40;16.95;;;;;;;18.87;63.13;98858.78;4926468;29;20057;-82
2022/06/20 05:12:48;;;;;;;65.20;40.67;;;;;;;19.00;62.60;98869.50;4933598;29;20603;-79
2022/06/20 05:15:40;;;;;;;7.70;3.83;;;;;;;18.93;61.86;98876.88;4927104;29;20615;-82
2022/06/20 05:18:37;;;;;;;11.57;5.45;;;;;;;18.71;61.67;98889.59;4922208;29;20066;-81
2022/06/20 05:21:36;;;;;;;12.18;7.03;;;;;;;18.46;61.44;98898.88;4924455;29;20055;-79
2022/06/20 05:24:30;;;;;;;5.50;2.88;;;;;;;18.43;61.48;98897.28;4928220;29;20075;-82
2022/06/20 05:27:29;;;;;;;4.18;2.90;;;;;;;18.41;60.96;98914.09;4924364;29;20047;-82
2022/06/20 05:30:22;;;;;;;19.17;11.10;;;;;;;18.41;61.37;98899.16;4928373;29;20155;-80
2022/06/20 05:33:28;;;;;;;8.82;5.40;;;;;;;18.67;60.82;98929.28;4934029;29;20103;-79
2022/06/20 05:36:20;;;;;;;18.23;12.50;;;;;;;18.81;60.61;98943.47;4933753;29;20111;-80
2022/06/20 05:38:59;;;;;;;3.58;2.88;;;;;;;18.71;59.93;98923.84;4925987;29;20178;-82
2022/06/20 05:41:26;;;;;;;20.83;13.05;;;;;;;18.64;60.23;98929.47;4927033;29;20420;-81
2022/06/20 05:43:53;;;;;;;15.27;8.70;;;;;;;18.44;60.00;98942.88;4926498;29;20048;-82
2022/06/20 05:46:29;;;;;;;7.43;3.88;;;;;;;18.30;59.45;98956.84;4925512;29;20047;-79
2022/06/20 05:49:03;;;;;;;20.80;13.13;;;;;;;18.04;60.09;98978.34;4940080;29;20078;-79
2022/06/20 05:51:33;;;;;;;9.98;5.70;;;;;;;17.77;59.94;98970.91;4918300;29;20058;-78
2022/06/20 05:54:04;;;;;;;8.48;5.15;;;;;;;17.82;60.69;98991.75;4932444;29;20042;-81
2022/06/20 05:56:39;;;;;;;6.22;2.65;;;;;;;17.61;60.79;98947.22;4933017;29;20048;-80
2022/06/20 05:59:12;;;;;;;15.15;8.07;;;;;;;17.64;60.93;98947.97;4935859;29;20055;-81
2022/06/20 06:01:40;;;;;;;8.00;4.90;;;;;;;17.71;61.01;98973.88;4901819;29;20058;-79
2022/06/20 06:04:22;;;;;;;11.60;5.00;;;;;;;17.76;60.96;98987.63;4910655;29;20143;-80
2022/06/20 06:06:55;;;;;;;5.80;3.45;;;;;;;17.76;61.23;99002.59;4931933;29;20047;-79
2022/06/20 06:09:46;;;;;;;8.95;5.65;;;;;;;17.72;61.44;99001.91;4945409;29;20063;-82
2022/06/20 06:12:21;;;;;;;6.70;3.03;;;;;;;17.64;61.38;98961.13;4930965;29;20102;-81
2022/06/20 06:14:55;;;;;;;6.93;4.85;;;;;;;17.66;61.45;98953.97;4915428;29;21576;-80
2022/06/20 06:17:34;;;;;;;5.28;3.05;;;;;;;17.68;61.40;98958.25;4928654;29;20075;-78
2022/06/20 06:20:11;;;;;;;5.28;3.60;;;;;;;17.60;61.03;98956.03;4929448;29;20120;-81
2022/06/20 06:22:44;;;;;;;8.73;3.90;;;;;;;17.53;61.11;98944.09;4926441;29;20043;-81
2022/06/20 06:25:31;;;;;;;5.53;3.35;;;;;;;17.76;61.58;98957.84;4912168;29;20044;-78
2022/06/20 06:28:19;;;;;;;6.32;3.88;;;;;;;17.90;61.11;98951.88;4931078;29;20519;-79
2022/06/20 06:31:06;;;;;;;6.18;3.38;;;;;;;17.91;60.98;98927.25;4940159;29;20048;-78
2022/06/20 06:33:50;;;;;;;7.25;4.13;;;;;;;18.08;61.06;98904.47;4945245;29;20071;-77
2022/06/20 06:36:31;;;;;;;5.22;2.92;;;;;;;18.39;60.57;98890.47;4931809;29;20126;-81
2022/06/20 06:39:04;;;;;;;4.90;2.60;;;;;;;19.10;60.52;98933.06;4930729;29;20055;-81
2022/06/20 06:41:36;;;;;;;4.53;2.83;;;;;;;19.44;59.68;98888.03;4914444;29;20039;-82
2022/06/20 06:44:13;;;;;;;7.30;2.33;;;;;;;20.40;58.48;98927.06;4910972;29;20054;-80
2022/06/20 06:46:43;;;;;;;5.28;2.05;;;;;;;20.62;57.16;98918.63;4929163;29;20451;-80
2022/06/20 06:49:42;;;;;;;36.20;25.77;;;;;;;20.80;56.31;98948.31;4927265;29;20051;-80
2022/06/20 06:52:10;;;;;;;26.70;16.67;;;;;;;20.99;55.74;98957.69;4927076;29;20039;-83
2022/06/20 06:54:54;;;;;;;20.02;13.23;;;;;;;21.40;55.14;98940.88;4909409;29;20139;-82
2022/06/20 07:41:54;;;;;;;10.07;6.30;;;;;;;29.65;34.43;98953.63;5097773;27;20416;-81
2022/06/20 07:44:44;;;;;;;12.45;8.30;;;;;;;28.99;35.47;98956.56;5094501;28;20401;-79
2022/06/20 07:47:18;;;;;;;9.75;6.63;;;;;;;28.37;36.13;98954.56;5095157;28;20032;-81
2022/06/20 07:49:49;;;;;;;12.57;8.25;;;;;;;28.11;36.19;98941.03;5096928;28;20039;-81
2022/06/20 07:52:33;;;;;;;17.48;9.38;;;;;;;28.04;36.05;98948.75;5094997;28;20399;-79
2022/06/20 07:55:06;;;;;;;9.15;4.75;;;;;;;27.62;36.41;98942.00;5065256;28;20062;-81
2022/06/20 07:57:37;;;;;;;4.90;2.92;;;;;;;27.48;36.45;98932.63;5059057;28;20036;-80
2022/06/20 08:00:10;;;;;;;7.05;3.83;;;;;;;28.46;36.28;98950.13;5095319;28;20046;-80
2022/06/20 08:02:48;;;;;;;6.47;3.20;;;;;;;31.09;33.58;98935.03;5094882;28;20766;-79
2022/06/20 08:05:44;;;;;;;5.10;3.90;;;;;;;34.19;30.32;98931.13;5095099;28;20043;-81
2022/06/20 08:08:20;;;;;;;7.95;2.47;;;;;;;36.27;27.95;98914.00;5074471;28;20047;-84
2022/06/20 08:10:56;;;;;;;7.20;3.75;;;;;;;37.07;26.91;98923.38;5075849;28;20040;-81
2022/06/20 08:13:35;;;;;;;5.32;2.28;;;;;;;38.02;24.67;98905.97;5095468;28;20530;-84
2022/06/20 08:16:17;;;;;;;11.13;4.88;;;;;;;38.05;23.60;98900.09;5080965;28;20044;-83
2022/06/20 08:18:43;;;;;;;4.80;2.63;;;;;;;38.72;22.93;98920.66;5094586;28;20039;-83
2022/06/20 08:21:16;;;;;;;12.60;7.80;;;;;;;39.31;22.11;98953.94;5092927;28;20047;-83
2022/06/20 08:23:56;;;;;;;14.70;11.75;;;;;;;39.17;21.56;98957.81;5096694;28;20044;-82
2022/06/20 08:26:27;;;;;;;3.90;2.45;;;;;;;38.89;21.62;98961.75;5056845;28;20048;-79
2022/06/20 08:28:58;;;;;;;7.78;5.18;;;;;;;38.79;21.57;98954.06;5082638;28;20032;-80
2022/06/20 08:31:30;;;;;;;12.20;7.20;;;;;;;38.75;21.34;98960.13;5094435;28;20047;-82
2022/06/20 08:34:14;;;;;;;7.57;4.22;;;;;;;39.81;19.97;98925.03;5094250;28;20048;-82
2022/06/20 08:36:46;;;;;;;9.77;5.97;;;;;;;41.31;19.23;98953.59;5080485;28;20089;-80
2022/06/20 08:39:33;;;;;;;4.40;3.20;;;;;;;41.87;18.39;98955.97;5094172;28;20043;-80
2022/06/20 08:42:28;;;;;;;4.75;3.25;;;;;;;40.96;18.02;98957.91;5086115;28;20093;-81
2022/06/20 08:45:23;;;;;;;5.45;2.42;;;;;;;38.28;19.90;98955.78;5093346;28;20047;-79
2022/06/20 08:48:01;;;;;;;12.30;10.13;;;;;;;37.73;20.76;98959.66;5069384;28;20078;-80
2022/06/20 08:50:53;;;;;;;7.63;2.92;;;;;;;37.60;21.01;98960.50;5079904;28;20037;-83
2022/06/20 08:53:56;;;;;;;8.40;2.78;;;;;;;37.42;20.38;98961.09;5053735;28;20370;-81
2022/06/20 08:57:00;;;;;;;6.32;2.25;;;;;;;37.37;20.66;98948.19;5058407;28;20051;-81
2022/06/20 09:00:03;;;;;;;7.72;2.42;;;;;;;38.26;19.45;98944.28;5051024;28;20193;-80
2022/06/20 09:02:53;;;;;;;5.40;2.17;;;;;;;37.37;20.00;98921.06;5079505;28;20386;-82
2022/06/20 09:06:02;;;;;;;5.28;2.38;;;;;;;35.61;20.90;98909.91;5080491;28;20040;-82
2022/06/20 09:08:48;;;;;;;3.83;2.22;;;;;;;36.04;21.07;98927.84;5083636;28;20042;-80
2022/06/20 09:11:21;;;;;;;8.38;3.90;;;;;;;36.30;20.60;98923.56;5062350;28;20407;-84
2022/06/20 09:14:18;;;;;;;8.25;3.13;;;;;;;35.91;21.04;98942.09;5067723;28;20520;-81
2022/06/20 09:17:10;;;;;;;9.85;4.22;;;;;;;35.02;22.01;98944.34;5078161;28;20051;-83
2022/06/20 09:20:14;;;;;;;8.32;4.40;;;;;;;35.33;21.94;98945.84;5078322;28;20405;-81
2022/06/20 09:22:46;;;;;;;3.33;2.05;;;;;;;35.56;21.48;98940.22;5078639;28;20413;-82
2022/06/20 09:25:17;;;;;;;5.22;2.63;;;;;;;35.30;21.37;98938.13;5077901;28;20040;-80
2022/06/20 09:27:55;;;;;;;5.78;2.47;;;;;;;34.56;22.31;98939.25;5079237;28;20382;-80
2022/06/20 09:30:43;;;;;;;9.77;3.88;;;;;;;34.18;22.72;98906.00;5048267;28;20591;-80
2022/06/20 09:33:26;;;;;;;5.28;3.05;;;;;;;34.07;22.94;98941.56;5061103;28;20044;-82
2022/06/20 09:36:26;;;;;;;2.95;2.08;;;;;;;33.54;23.08;98952.41;5096245;28;21556;-82
2022/06/20 09:39:14;;;;;;;5.07;2.30;;;;;;;32.89;23.90;98940.06;5079191;28;20093;-81
2022/06/20 09:41:52;;;;;;;7.75;3.00;;;;;;;32.30;24.27;98929.84;5079552;28;20210;-81
2022/06/20 09:44:30;;;;;;;3.42;2.25;;;;;;;31.83;24.22;98910.81;5080042;28;20131;-84
2022/06/20 09:47:28;;;;;;;7.38;2.20;;;;;;;31.35;24.84;98916.06;5079211;28;20160;-84
2022/06/20 09:50:12;;;;;;;7.20;3.45;;;;;;;30.82;25.76;98915.53;5027018;28;20068;-82
2022/06/20 09:52:53;;;;;;;5.68;2.28;;;;;;;31.43;25.74;98943.97;5059174;28;20136;-81
2022/06/20 09:56:05;;;;;;;8.30;2.92;;;;;;;31.48;25.51;98937.06;5063575;28;20064;-81
2022/06/20 09:58:38;;;;;;;5.97;2.92;;;;;;;31.24;25.56;98937.94;5019863;28;20049;-81
2022/06/20 10:01:16;;;;;;;22.48;18.98;;;;;;;30.93;25.87;98939.41;5001042;28;20597;-79
2022/06/20 10:03:55;;;;;;;5.50;3.97;;;;;;;30.63;25.96;98939.00;5028599;28;20066;-82
2022/06/20 10:06:29;;;;;;;24.00;19.25;;;;;;;30.37;26.03;98941.75;5080675;28;20051;-80
2022/06/20 10:09:05;;;;;;;14.70;10.95;;;;;;;30.10;26.14;98921.38;5079331;28;20046;-82
2022/06/20 10:12:19;;;;;;;10.48;6.82;;;;;;;29.85;26.76;98938.13;5080882;28;20032;-84
2022/06/20 10:15:24;;;;;;;12.32;8.75;;;;;;;29.41;27.23;98938.19;5023812;28;20481;-80
2022/06/20 10:18:00;;;;;;;6.50;3.60;;;;;;;28.96;27.16;98942.66;4945274;28;21768;-79
2022/06/20 10:20:45;;;;;;;6.88;2.40;;;;;;;28.37;27.79;98938.50;5080409;28;20029;-81
2022/06/20 10:23:33;;;;;;;11.07;4.82;;;;;;;28.01;27.86;98937.53;5096506;28;20044;-79
2022/06/20 10:26:21;;;;;;;3.88;2.22;;;;;;;27.55;28.20;98940.91;5078082;28;20028;-79
2022/06/20 10:29:10;;;;;;;7.07;2.65;;;;;;;27.31;28.40;98944.00;5069862;28;20052;-79
2022/06/20 10:31:43;;;;;;;4.07;2.03;;;;;;;27.22;28.37;98961.72;5034882;28;20036;-82
2022/06/20 10:34:33;;;;;;;5.07;2.05;;;;;;;26.97;28.66;98957.75;5083292;28;20131;-82
2022/06/20 10:37:23;;;;;;;6.53;1.93;;;;;;;26.81;28.86;98955.66;5080895;28;20044;-81
2022/06/20 10:40:15;;;;;;;4.00;1.67;;;;;;;26.70;28.72;98961.94;5080093;28;20139;-83
2022/06/20 10:43:09;;;;;;;5.97;1.75;;;;;;;26.53;28.43;98953.59;5045008;28;20043;-82
2022/06/20 10:45:46;;;;;;;2.40;1.80;;;;;;;26.23;28.74;98965.16;5077453;28;20120;-79
2022/06/20 10:48:42;;;;;;;3.97;1.70;;;;;;;26.04;28.70;98972.06;5077766;28;20036;-81
2022/06/20 10:51:35;;;;;;;6.70;1.80;;;;;;;25.76;29.41;98958.47;5079996;28;20513;-81
2022/06/20 10:54:01;;;;;;;2.83;1.50;;;;;;;25.58;29.35;98954.72;5063915;28;20066;-81
2022/06/20 10:56:42;;;;;;;1.95;1.30;;;;;;;25.46;29.60;98946.81;5083443;28;20552;-80
2022/06/20 10:59:27;;;;;;;;;;;;;;;25.44;29.55;98959.41;5080615;28;20489;-83
2022/06/20 11:02:03;;;;;;;2.25;1.13;;;;;;;25.25;29.70;98950.28;5078553;28;19973;-81
2022/06/20 11:04:43;;;;;;;4.25;1.55;;;;;;;25.19;29.69;98958.75;5079610;28;20142;-82
2022/06/20 11:07:50;;;;;;;3.75;1.67;;;;;;;25.01;30.08;98958.47;5068145;28;20055;-82
2022/06/20 11:10:23;;;;;;;2.65;1.67;;;;;;;24.95;30.12;98956.28;4996257;28;20050;-80
2022/06/20 11:12:59;;;;;;;6.35;1.60;;;;;;;24.85;30.20;98942.09;4995445;28;20037;-82
2022/06/20 11:15:28;;;;;;;4.10;1.30;;;;;;;24.90;30.77;98961.19;5077415;28;20097;-83
2022/06/20 11:18:03;;;;;;;4.68;3.13;;;;;;;24.92;30.61;98960.06;5078743;28;20500;-81
2022/06/20 11:20:42;;;;;;;3.17;1.60;;;;;;;24.86;30.85;98959.72;5080124;28;20138;-83
2022/06/20 11:23:26;;;;;;;6.65;2.40;;;;;;;24.34;31.56;98950.50;5078730;28;20036;-82
2022/06/20 11:26:27;;;;;;;7.70;2.60;;;;;;;23.91;35.05;98957.34;5076883;28;20094;-81
2022/06/20 11:29:06;;;;;;;6.45;2.72;;;;;;;23.44;37.10;98961.84;5038180;28;20074;-80
2022/06/20 11:31:36;;;;;;;5.70;2.70;;;;;;;23.17;38.33;98952.34;5045417;28;20390;-83
2022/06/20 11:34:29;;;;;;;10.25;3.70;;;;;;;22.97;39.94;98956.47;5059166;28;20074;-81
2022/06/20 11:37:24;;;;;;;8.27;2.90;;;;;;;22.71;40.47;98960.09;5078093;28;20465;-79
2022/06/20 11:40:17;;;;;;;9.15;2.90;;;;;;;22.59;41.47;98965.44;5056362;28;20044;-83
2022/06/20 11:42:46;;;;;;;4.55;2.50;;;;;;;22.45;42.16;98961.94;5078789;28;20075;-82
2022/06/20 11:45:51;;;;;;;6.63;3.42;;;;;;;22.16;42.95;98935.72;5079084;28;20048;-81
2022/06/20 11:48:24;;;;;;;7.18;2.90;;;;;;;21.92;43.59;98956.81;5078177;28;20052;-81
2022/06/20 11:51:18;;;;;;;6.18;2.65;;;;;;;21.70;44.50;98962.75;5077743;28;20087;-82
2022/06/20 11:53:59;;;;;;;6.32;2.97;;;;;;;21.60;44.80;98965.16;5059432;28;20062;-81
2022/06/20 11:56:38;;;;;;;8.85;3.15;;;;;;;21.38;45.42;98948.09;5078434;28;20146;-80
2022/06/20 11:59:32;;;;;;;6.47;2.92;;;;;;;21.24;46.11;98956.94;5070938;28;20125;-80
2022/06/20 12:02:01;;;;;;;6.97;3.17;;;;;;;21.23;46.46;98973.75;5044887;28;20712;-82
2022/06/20 12:04:51;;;;;;;7.70;2.80;;;;;;;21.12;47.26;98937.44;5081951;28;20047;-82
2022/06/20 12:07:28;;;;;;;7.78;2.67;;;;;;;21.03;47.20;98941.53;5077506;28;20076;-82
2022/06/20 12:10:12;;;;;;;8.70;3.08;;;;;;;21.09;47.44;98948.22;5077119;28;20047;-83
2022/06/20 12:12:59;;;;;;;10.82;3.72;;;;;;;21.19;47.89;98964.31;5080620;28;20072;-82
2022/06/20 12:15:38;;;;;;;8.25;3.20;;;;;;;21.13;48.03;98962.06;5076732;28;20040;-83
2022/06/20 12:18:31;;;;;;;5.82;2.92;;;;;;;21.05;48.43;98967.88;5069177;28;20032;-82
2022/06/20 12:23:53;;;;;;;8.50;2.75;;;;;;;20.86;48.65;98962.94;5086616;28;20103;-83
2022/06/20 12:26:32;;;;;;;7.40;3.22;;;;;;;20.71;49.11;98976.16;5065272;28;20151;-81
2022/06/20 12:29:01;;;;;;;9.38;2.80;;;;;;;20.32;49.82;98932.84;5074322;28;20040;-82
2022/06/20 12:31:33;;;;;;;7.10;2.85;;;;;;;20.46;49.77;98972.44;5080007;28;20501;-84
2022/06/20 12:34:08;;;;;;;10.02;3.03;;;;;;;20.39;50.29;98976.44;5080488;28;20099;-83
2022/06/20 12:36:54;;;;;;;10.95;2.78;;;;;;;20.28;50.35;98979.75;5080872;28;20043;-84
2022/06/20 12:39:39;;;;;;;5.90;3.47;;;;;;;20.14;50.71;98983.25;5067434;28;20046;-83
2022/06/20 12:42:39;;;;;;;9.27;3.17;;;;;;;19.80;51.23;98969.41;5083975;28;20059;-82
2022/06/20 12:45:08;;;;;;;6.32;2.80;;;;;;;19.78;51.89;98995.03;5066445;28;20055;-81
2022/06/20 12:47:43;;;;;;;6.95;2.83;;;;;;;19.68;52.10;99001.81;5067925;28;20044;-82
2022/06/20 12:50:27;;;;;;;6.43;2.92;;;;;;;19.55;52.13;98986.69;5081223;28;20040;-82
2022/06/20 12:52:57;;;;;;;7.75;3.15;;;;;;;19.47;52.82;98994.22;5081863;28;20728;-82
2022/06/20 12:55:36;;;;;;;9.32;2.90;;;;;;;19.49;53.00;99004.69;5064869;28;20385;-80
2022/06/20 12:58:19;;;;;;;5.45;2.90;;;;;;;19.52;53.24;98992.19;5056149;28;20108;-83
2022/06/20 13:00:53;;;;;;;9.70;3.13;;;;;;;19.70;53.22;99006.06;5066633;28;20036;-83
2022/06/20 13:03:40;;;;;;;4.95;2.95;;;;;;;19.76;53.09;99014.56;5059836;28;20052;-82
2022/06/20 13:06:11;;;;;;;7.43;2.72;;;;;;;19.72;53.02;99013.91;5080183;28;20036;-83
2022/06/20 13:08:40;;;;;;;6.55;3.10;;;;;;;19.75;53.19;99016.31;5063976;28;20464;-81
2022/06/20 13:11:30;;;;;;;8.05;2.88;;;;;;;19.65;53.38;99025.75;5092585;28;20036;-81
2022/06/20 13:14:08;;;;;;;6.22;2.88;;;;;;;19.64;53.43;99021.41;5093511;28;20044;-82
2022/06/20 13:16:45;;;;;;;9.27;3.08;;;;;;;19.74;53.28;99011.16;5090672;28;20032;-81
2022/06/20 13:19:40;;;;;;;12.82;3.03;;;;;;;19.87;53.32;99001.56;5100044;28;20105;-80
2022/06/20 13:22:21;;;;;;;7.93;2.60;;;;;;;20.03;53.36;99004.16;5052373;28;20139;-83
2022/06/20 13:24:59;;;;;;;9.07;2.88;;;;;;;19.97;53.16;98975.50;5062623;28;20083;-81
2022/06/20 13:27:44;;;;;;;6.78;3.45;;;;;;;20.06;53.19;98980.22;5080923;28;20048;-81
2022/06/20 13:30:28;;;;;;;7.82;3.55;;;;;;;20.21;52.64;98998.69;5095795;28;20100;-81
2022/06/20 13:33:01;;;;;;;7.43;3.47;;;;;;;20.24;52.80;99004.66;5083430;28;20044;-81
2022/06/20 13:35:44;;;;;;;11.40;3.88;;;;;;;20.15;52.39;98974.38;5074598;28;20488;-80
2022/06/20 13:38:29;;;;;;;11.10;4.45;;;;;;;20.25;52.11;98973.78;5097961;28;20050;-81
2022/06/20 13:41:07;;;;;;;10.35;4.18;;;;;;;20.32;52.49;98986.50;5096913;28;20043;-81